createdAt,value
2022-08-21T00:01:42.204Z,100468.56
2022-08-21T00:04:10.089Z,100460.50
2022-08-21T00:06:37.864Z,100464.25
2022-08-21T00:09:07.042Z,100452.88
2022-08-21T00:11:35.902Z,100450.38
2022-08-21T00:14:03.873Z,100452.22
2022-08-21T00:16:30.329Z,100446.47
2022-08-21T00:18:56.764Z,100450.88
2022-08-21T00:21:23.350Z,100445.72
2022-08-21T00:23:49.711Z,100441.44
2022-08-21T00:26:16.265Z,100446.44
2022-08-21T00:28:42.664Z,100442.94
2022-08-21T00:31:09.334Z,100443.16
2022-08-21T00:33:35.846Z,100439.59
2022-08-21T00:36:02.263Z,100423.31
2022-08-21T00:38:28.636Z,100427.41
2022-08-21T00:41:00.324Z,100429.50
2022-08-21T00:43:46.460Z,100430.16
2022-08-21T00:46:12.882Z,100430.38
2022-08-21T00:48:39.314Z,100437.84
2022-08-21T00:51:09.707Z,100439.53
2022-08-21T00:53:38.674Z,100431.66
2022-08-21T00:56:08.356Z,100449.72
2022-08-21T00:58:40.005Z,100436.31
2022-08-21T01:01:09.325Z,100435.72
2022-08-21T01:03:37.229Z,100420.22
2022-08-21T01:06:05.630Z,100438.22
2022-08-21T01:08:33.182Z,100439.47
2022-08-21T01:11:00.915Z,100436.00
2022-08-21T01:13:32.336Z,100442.66
2022-08-21T01:16:01.859Z,100449.44
2022-08-21T01:18:28.673Z,100446.34
2022-08-21T01:21:05.256Z,100456.69
2022-08-21T01:23:32.368Z,100456.03
2022-08-21T01:25:58.735Z,100446.94
2022-08-21T01:28:25.465Z,100433.91
2022-08-21T01:30:53.433Z,100439.25
2022-08-21T01:33:25.401Z,100444.84
2022-08-21T01:35:52.010Z,100435.97
2022-08-21T01:38:18.726Z,100441.94
2022-08-21T01:40:45.137Z,100442.34
2022-08-21T01:43:11.539Z,100448.59
2022-08-21T01:45:38.048Z,100442.81
2022-08-21T01:48:04.665Z,100442.38
2022-08-21T01:50:31.638Z,100438.06
2022-08-21T01:52:58.144Z,100435.56
2022-08-21T01:55:24.765Z,100432.69
2022-08-21T01:57:51.430Z,100432.91
2022-08-21T02:00:21.078Z,100435.81
2022-08-21T02:02:47.489Z,100432.50
2022-08-21T02:05:14.090Z,100432.72
2022-08-21T02:07:43.304Z,100435.81
2022-08-21T02:10:12.093Z,100432.72
2022-08-21T02:12:38.582Z,100432.13
2022-08-21T02:15:07.704Z,100436.69
2022-08-21T02:17:42.476Z,100411.91
2022-08-21T02:20:10.480Z,100430.91
2022-08-21T02:22:36.857Z,100425.75
2022-08-21T02:25:04.178Z,100405.28
2022-08-21T02:27:30.562Z,100434.81
2022-08-21T02:30:00.468Z,100426.75
2022-08-21T02:32:27.095Z,100426.16
2022-08-21T02:34:54.301Z,100413.97
2022-08-21T02:37:21.079Z,100426.56
2022-08-21T02:39:47.579Z,100423.25
2022-08-21T02:42:13.972Z,100428.84
2022-08-21T02:44:40.322Z,100422.88
2022-08-21T02:47:06.830Z,100420.19
2022-08-21T02:49:33.285Z,100418.50
2022-08-21T02:52:00.117Z,100417.09
2022-08-21T02:54:26.478Z,100423.47
2022-08-21T02:56:52.975Z,100408.00
2022-08-21T02:59:19.377Z,100412.72
2022-08-21T03:01:45.795Z,100419.38
2022-08-21T03:04:12.221Z,100417.72
2022-08-21T03:06:38.576Z,100405.72
2022-08-21T03:09:05.069Z,100415.03
2022-08-21T03:11:31.405Z,100415.84
2022-08-21T03:13:57.925Z,100416.06
2022-08-21T03:16:24.310Z,100414.19
2022-08-21T03:18:50.673Z,100412.53
2022-08-21T03:21:18.574Z,100406.16
2022-08-21T03:23:44.916Z,100410.47
2022-08-21T03:26:11.964Z,100408.81
2022-08-21T03:28:38.444Z,100412.53
2022-08-21T03:31:06.519Z,100412.75
2022-08-21T03:33:33.299Z,100409.44
2022-08-21T03:36:06.868Z,100405.72
2022-08-21T03:38:34.596Z,100414.63
2022-08-21T03:41:01.762Z,100415.66
2022-08-21T03:43:30.913Z,100411.53
2022-08-21T03:45:59.449Z,100407.41
2022-08-21T03:48:25.816Z,100411.31
2022-08-21T03:50:53.837Z,100409.91
2022-08-21T03:53:20.195Z,100413.00
2022-08-21T03:55:49.397Z,100415.06
2022-08-21T03:58:18.051Z,100412.38
2022-08-21T04:00:49.655Z,100411.34
2022-08-21T04:03:16.966Z,100421.88
2022-08-21T04:05:43.567Z,100427.66
2022-08-21T04:08:09.948Z,100428.91
2022-08-21T04:10:39.077Z,100431.59
2022-08-21T04:13:06.426Z,100430.78
2022-08-21T04:15:33.245Z,100426.44
2022-08-21T04:18:00.357Z,100430.16
2022-08-21T04:20:27.653Z,100434.50
2022-08-21T04:22:54.474Z,100408.03
2022-08-21T04:25:22.944Z,100428.09
2022-08-21T04:27:49.760Z,100432.63
2022-08-21T04:30:16.945Z,100418.38
2022-08-21T04:32:49.778Z,100430.78
2022-08-21T04:35:19.797Z,100410.94
2022-08-21T04:37:46.203Z,100435.53
2022-08-21T04:40:14.817Z,100436.34
2022-08-21T04:42:45.686Z,100437.59
2022-08-21T04:45:22.915Z,100427.06
2022-08-21T04:47:52.524Z,100445.44
2022-08-21T04:50:22.724Z,100446.28
2022-08-21T04:52:49.273Z,100443.81
2022-08-21T04:55:18.520Z,100447.09
2022-08-21T04:57:48.882Z,100444.84
2022-08-21T05:00:19.179Z,100442.75
2022-08-21T05:02:48.359Z,100448.53
2022-08-21T05:05:15.545Z,100449.16
2022-08-21T05:07:44.268Z,100459.50
2022-08-21T05:10:12.606Z,100439.47
2022-08-21T05:12:42.755Z,100470.03
2022-08-21T05:15:12.186Z,100459.91
2022-08-21T05:17:41.296Z,100455.16
2022-08-21T05:20:08.832Z,100475.00
2022-08-21T05:22:35.301Z,100465.06
2022-08-21T05:25:01.660Z,100467.34
2022-08-21T05:27:30.585Z,100451.44
2022-08-21T05:29:58.409Z,100472.28
2022-08-21T05:32:24.956Z,100471.47
2022-08-21T05:34:51.597Z,100470.03
2022-08-21T05:37:18.020Z,100461.31
2022-08-21T05:40:20.792Z,100469.38
2022-08-21T05:42:31.465Z,100464.22
2022-08-21T05:44:57.848Z,100467.50
2022-08-21T05:47:25.709Z,100463.59
2022-08-21T05:49:52.141Z,100466.47
2022-08-21T05:52:22.413Z,100458.19
2022-08-21T05:54:48.839Z,100452.41
2022-08-21T05:57:15.706Z,100456.72
2022-08-21T05:59:42.394Z,100468.94
2022-08-21T06:02:12.164Z,100475.31
2022-08-21T06:04:39.461Z,100477.34
2022-08-21T06:07:06.650Z,100473.25
2022-08-21T06:09:33.326Z,100474.03
2022-08-21T06:12:04.861Z,100475.88
2022-08-21T06:14:31.225Z,100468.03
2022-08-21T06:17:04.195Z,100474.63
2022-08-21T06:19:30.552Z,100473.78
2022-08-21T06:21:56.921Z,100478.50
2022-08-21T06:24:23.649Z,100448.72
2022-08-21T06:26:50.066Z,100471.00
2022-08-21T06:29:20.661Z,100470.97
2022-08-21T06:31:49.826Z,100469.50
2022-08-21T06:34:17.030Z,100469.69
2022-08-21T06:36:43.477Z,100468.19
2022-08-21T06:39:16.443Z,100466.31
2022-08-21T06:41:51.216Z,100451.41
2022-08-21T06:44:18.637Z,100467.28
2022-08-21T06:46:44.997Z,100466.44
2022-08-21T06:49:21.486Z,100470.97
2022-08-21T06:51:48.064Z,100471.72
2022-08-21T06:54:14.425Z,100476.66
2022-08-21T06:56:40.884Z,100466.03
2022-08-21T06:59:07.264Z,100462.91
2022-08-21T07:01:33.677Z,100474.84
2022-08-21T07:04:00.113Z,100467.78
2022-08-21T07:06:26.504Z,100477.44
2022-08-21T07:08:52.921Z,100473.91
2022-08-21T07:11:23.262Z,100485.44
2022-08-21T07:13:52.084Z,100475.03
2022-08-21T07:16:18.590Z,100474.81
2022-08-21T07:18:45.034Z,100479.34
2022-08-21T07:21:11.760Z,100479.25
2022-08-21T07:23:41.607Z,100476.06
2022-08-21T07:26:09.293Z,100463.00
2022-08-21T07:28:36.052Z,100462.50
2022-08-21T07:31:04.547Z,100483.47
2022-08-21T07:33:33.720Z,100478.69
2022-08-21T07:36:00.160Z,100486.47
2022-08-21T07:38:26.753Z,100480.19
2022-08-21T07:40:56.373Z,100486.69
2022-08-21T07:43:23.293Z,100490.97
2022-08-21T07:45:52.750Z,100485.25
2022-08-21T07:48:19.114Z,100490.38
2022-08-21T07:50:45.547Z,100493.94
2022-08-21T07:53:11.964Z,100482.72
2022-08-21T07:55:38.341Z,100478.41
2022-08-21T07:58:04.756Z,100457.72
2022-08-21T08:00:31.952Z,100468.31
2022-08-21T08:02:58.736Z,100479.28
2022-08-21T08:05:28.897Z,100472.84
2022-08-21T08:07:55.846Z,100470.28
2022-08-21T08:10:23.781Z,100483.91
2022-08-21T08:12:55.323Z,100487.91
2022-08-21T08:15:25.401Z,100484.66
2022-08-21T08:17:52.212Z,100482.53
2022-08-21T08:20:19.368Z,100478.75
2022-08-21T08:22:50.456Z,100480.88
2022-08-21T08:25:18.069Z,100478.38
2022-08-21T08:27:44.645Z,100474.56
2022-08-21T08:30:13.808Z,100469.03
2022-08-21T08:32:41.170Z,100467.72
2022-08-21T08:35:08.962Z,100476.88
2022-08-21T08:37:38.623Z,100471.78
2022-08-21T08:40:22.984Z,100470.72
2022-08-21T08:42:51.304Z,100474.22
2022-08-21T08:45:24.693Z,100469.78
2022-08-21T08:48:01.103Z,100456.66
2022-08-21T08:50:50.389Z,100461.09
2022-08-21T08:53:24.059Z,100456.41
2022-08-21T08:55:53.482Z,100460.22
2022-08-21T08:58:27.570Z,100460.31
2022-08-21T09:00:55.895Z,100462.13
2022-08-21T09:03:24.756Z,100434.78
2022-08-21T09:06:18.984Z,100460.22
2022-08-21T09:08:45.287Z,100457.63
2022-08-21T09:11:23.506Z,100455.41
2022-08-21T09:14:23.016Z,100452.22
2022-08-21T09:16:57.902Z,100447.56
2022-08-21T09:19:56.657Z,100451.50
2022-08-21T09:22:38.224Z,100442.59
2022-08-21T09:25:31.893Z,100436.97
2022-08-21T09:27:58.374Z,100441.38
2022-08-21T09:30:29.722Z,100433.19
2022-08-21T09:32:56.206Z,100439.19
2022-08-21T09:35:25.039Z,100436.91
2022-08-21T09:37:54.297Z,100437.44
2022-08-21T09:40:34.442Z,100438.72
2022-08-21T09:43:14.557Z,100441.06
2022-08-21T09:45:42.942Z,100450.88
2022-08-21T09:48:27.047Z,100435.34
2022-08-21T09:50:54.662Z,100440.00
2022-08-21T09:53:27.496Z,100430.31
2022-08-21T09:56:16.680Z,100431.44
2022-08-21T09:58:47.160Z,100430.06
2022-08-21T10:01:26.004Z,100431.19
2022-08-21T10:04:12.311Z,100425.75
2022-08-21T10:06:39.610Z,100425.19
2022-08-21T10:09:21.705Z,100424.56
2022-08-21T10:12:24.149Z,100425.88
2022-08-21T10:15:07.828Z,100427.38
2022-08-21T10:17:41.748Z,100411.81
2022-08-21T10:20:18.882Z,100424.47
2022-08-21T10:22:56.043Z,100412.66
2022-08-21T10:25:32.088Z,100414.53
2022-08-21T10:28:13.758Z,100405.69
2022-08-21T10:30:53.253Z,100411.44
2022-08-21T10:33:40.022Z,100407.22
2022-08-21T10:36:21.083Z,100418.09
2022-08-21T10:39:23.751Z,100410.69
2022-08-21T10:42:05.594Z,100407.38
2022-08-21T10:44:48.541Z,100406.28
2022-08-21T10:47:20.043Z,100414.22
2022-08-21T10:49:58.811Z,100408.44
2022-08-21T10:52:51.275Z,100410.50
2022-08-21T10:55:22.081Z,100406.81
2022-08-21T10:57:55.014Z,100402.16
2022-08-21T11:00:23.712Z,100394.50
2022-08-21T11:02:58.189Z,100404.28
2022-08-21T11:05:31.874Z,100396.84
2022-08-21T11:08:26.073Z,100396.44
2022-08-21T11:11:08.707Z,100396.09
2022-08-21T11:13:48.107Z,100401.47
2022-08-21T11:16:38.044Z,100400.66
2022-08-21T11:19:17.829Z,100398.09
2022-08-21T11:21:53.793Z,100395.59
2022-08-21T11:24:45.529Z,100394.81
2022-08-21T11:27:22.863Z,100391.88
2022-08-21T11:29:54.921Z,100388.00
2022-08-21T11:32:39.826Z,100392.06
2022-08-21T11:35:31.353Z,100376.94
2022-08-21T11:37:57.688Z,100396.25
2022-08-21T11:40:43.562Z,100354.50
2022-08-21T11:43:11.796Z,100388.66
2022-08-21T11:45:56.673Z,100384.38
2022-08-21T11:48:48.162Z,100381.97
2022-08-21T11:51:28.100Z,100374.84
2022-08-21T11:54:12.292Z,100382.97
2022-08-21T11:56:54.532Z,100375.66
2022-08-21T11:59:26.291Z,100361.88
2022-08-21T12:01:54.126Z,100377.78
2022-08-21T12:04:46.987Z,100366.41
2022-08-21T12:07:16.845Z,100375.50
2022-08-21T12:09:55.065Z,100365.75
2022-08-21T12:12:34.422Z,100365.19
2022-08-21T12:15:06.845Z,100363.81
2022-08-21T12:17:39.150Z,100366.25
2022-08-21T12:20:20.852Z,100350.00
2022-08-21T12:23:06.021Z,100362.34
2022-08-21T12:25:42.697Z,100358.63
2022-08-21T12:28:15.404Z,100354.84
2022-08-21T12:30:45.965Z,100349.97
2022-08-21T12:33:29.701Z,100343.50
2022-08-21T12:36:26.552Z,100342.03
2022-08-21T12:39:02.118Z,100344.56
2022-08-21T12:41:34.377Z,100353.72
2022-08-21T12:44:09.711Z,100340.94
2022-08-21T12:46:45.390Z,100359.72
2022-08-21T12:49:26.724Z,100356.22
2022-08-21T12:52:08.395Z,100354.78
2022-08-21T12:54:41.465Z,100355.25
2022-08-21T12:57:10.014Z,100348.16
2022-08-21T12:59:40.739Z,100353.47
2022-08-21T13:02:17.857Z,100348.50
2022-08-21T13:04:45.421Z,100352.91
2022-08-21T13:07:16.097Z,100343.97
2022-08-21T13:09:55.370Z,100349.09
2022-08-21T13:12:23.708Z,100338.28
2022-08-21T13:14:58.674Z,100335.84
2022-08-21T13:17:27.234Z,100340.09
2022-08-21T13:20:08.931Z,100339.13
2022-08-21T13:22:42.050Z,100341.16
2022-08-21T13:25:17.169Z,100334.50
2022-08-21T13:27:48.328Z,100334.44
2022-08-21T13:30:21.441Z,100336.34
2022-08-21T13:32:51.966Z,100329.50
2022-08-21T13:35:26.647Z,100331.69
2022-08-21T13:37:54.948Z,100333.09
2022-08-21T13:40:32.388Z,100326.19
2022-08-21T13:43:01.164Z,100332.25
2022-08-21T13:45:33.089Z,100326.81
2022-08-21T13:48:03.179Z,100332.00
2022-08-21T13:50:36.292Z,100323.94
2022-08-21T13:53:05.951Z,100333.66
2022-08-21T13:55:44.010Z,100331.41
2022-08-21T13:58:12.397Z,100329.38
2022-08-21T14:00:48.573Z,100317.38
2022-08-21T14:03:39.069Z,100303.97
2022-08-21T14:06:16.138Z,100324.31
2022-08-21T14:08:47.613Z,100323.03
2022-08-21T14:11:14.253Z,100311.59
2022-08-21T14:13:50.445Z,100310.78
2022-08-21T14:16:23.675Z,100307.44
2022-08-21T14:19:12.390Z,100306.34
2022-08-21T14:21:44.446Z,100311.69
2022-08-21T14:24:31.852Z,100300.59
2022-08-21T14:27:05.387Z,100297.34
2022-08-21T14:29:39.230Z,100299.00
2022-08-21T14:32:24.616Z,100289.22
2022-08-21T14:34:52.592Z,100297.25
2022-08-21T14:37:21.041Z,100290.97
2022-08-21T14:39:47.414Z,100299.09
2022-08-21T14:42:13.923Z,100293.59
2022-08-21T14:44:40.381Z,100285.47
2022-08-21T14:47:06.813Z,100291.38
2022-08-21T14:49:33.192Z,100286.28
2022-08-21T14:51:59.659Z,100288.13
2022-08-21T14:54:31.086Z,100282.81
2022-08-21T14:57:01.544Z,100284.97
2022-08-21T14:59:28.357Z,100240.38
2022-08-21T15:01:54.787Z,100272.75
2022-08-21T15:04:21.193Z,100271.34
2022-08-21T15:06:47.589Z,100270.28
2022-08-21T15:09:13.977Z,100274.19
2022-08-21T15:11:42.308Z,100284.81
2022-08-21T15:14:19.901Z,100284.13
2022-08-21T15:16:47.145Z,100274.56
2022-08-21T15:19:13.613Z,100281.31
2022-08-21T15:21:40.044Z,100272.13
2022-08-21T15:24:06.594Z,100277.56
2022-08-21T15:26:33.066Z,100279.63
2022-08-21T15:29:00.201Z,100271.50
2022-08-21T15:31:27.580Z,100284.44
2022-08-21T15:33:54.617Z,100269.84
2022-08-21T15:36:21.098Z,100271.16
2022-08-21T15:38:47.736Z,100272.00
2022-08-21T15:41:14.766Z,100252.91
2022-08-21T15:43:46.625Z,100270.28
2022-08-21T15:46:14.959Z,100269.25
2022-08-21T15:48:41.460Z,100260.19
2022-08-21T15:51:08.198Z,100265.22
2022-08-21T15:53:39.213Z,100270.69
2022-08-21T15:56:21.173Z,100268.47
2022-08-21T15:58:47.889Z,100258.66
2022-08-21T16:01:14.445Z,100200.53
2022-08-21T16:03:41.041Z,100267.44
2022-08-21T16:06:07.676Z,100258.41
2022-08-21T16:08:34.008Z,100263.22
2022-08-21T16:11:01.312Z,100259.56
2022-08-21T16:13:33.297Z,100261.47
2022-08-21T16:16:00.087Z,100258.38
2022-08-21T16:18:27.337Z,100248.53
2022-08-21T16:20:53.822Z,100258.25
2022-08-21T16:23:20.172Z,100262.28
2022-08-21T16:25:46.740Z,100253.19
2022-08-21T16:28:17.237Z,100254.66
2022-08-21T16:30:47.037Z,100217.47
2022-08-21T16:33:24.983Z,100253.91
2022-08-21T16:35:52.077Z,100259.03
2022-08-21T16:38:18.512Z,100250.25
2022-08-21T16:40:45.096Z,100254.13
2022-08-21T16:43:11.425Z,100256.44
2022-08-21T16:45:39.098Z,100252.50
2022-08-21T16:48:09.585Z,100255.28
2022-08-21T16:50:36.895Z,100255.56
2022-08-21T16:53:04.048Z,100252.91
2022-08-21T16:55:30.648Z,100258.72
2022-08-21T16:57:57.068Z,100254.13
2022-08-21T17:00:23.416Z,100259.69
2022-08-21T17:02:54.531Z,100256.97
2022-08-21T17:05:20.983Z,100259.94
2022-08-21T17:07:47.494Z,100259.59
2022-08-21T17:10:16.222Z,100250.34
2022-08-21T17:12:44.602Z,100262.81
2022-08-21T17:15:21.624Z,100260.44
2022-08-21T17:17:48.306Z,100261.69
2022-08-21T17:20:15.547Z,100258.03
2022-08-21T17:22:41.923Z,100255.34
2022-08-21T17:25:08.837Z,100256.44
2022-08-21T17:27:35.337Z,100255.97
2022-08-21T17:30:01.899Z,100260.69
2022-08-21T17:32:28.398Z,100257.75
2022-08-21T17:34:54.961Z,100264.41
2022-08-21T17:37:21.795Z,100263.47
2022-08-21T17:39:48.172Z,100271.75
2022-08-21T17:42:15.313Z,100259.00
2022-08-21T17:44:44.665Z,100265.59
2022-08-21T17:47:12.720Z,100263.16
2022-08-21T17:49:39.141Z,100267.31
2022-08-21T17:52:07.435Z,100276.09
2022-08-21T17:54:35.292Z,100264.69
2022-08-21T17:57:03.257Z,100262.25
2022-08-21T17:59:29.778Z,100263.94
2022-08-21T18:02:01.598Z,100253.91
2022-08-21T18:04:29.385Z,100268.38
2022-08-21T18:06:56.744Z,100273.34
2022-08-21T18:09:27.697Z,100260.00
2022-08-21T18:11:57.129Z,100271.47
2022-08-21T18:14:28.607Z,100274.72
2022-08-21T18:16:56.216Z,100284.81
2022-08-21T18:19:25.830Z,100285.63
2022-08-21T18:21:53.857Z,100279.91
2022-08-21T18:24:21.308Z,100285.91
2022-08-21T18:26:48.151Z,100285.88
2022-08-21T18:29:18.244Z,100300.88
2022-08-21T18:31:46.295Z,100288.63
2022-08-21T18:34:36.209Z,100288.59
2022-08-21T18:37:03.351Z,100285.53
2022-08-21T18:39:38.508Z,100290.41
2022-08-21T18:42:10.123Z,100294.25
2022-08-21T18:44:37.621Z,100288.22
2022-08-21T18:47:11.842Z,100295.53
2022-08-21T18:49:38.774Z,100282.72
2022-08-21T18:52:05.629Z,100296.59
2022-08-21T18:54:33.104Z,100282.44
2022-08-21T18:56:59.492Z,100298.75
2022-08-21T18:59:32.186Z,100295.41
2022-08-21T19:01:59.753Z,100298.13
2022-08-21T19:04:43.575Z,100302.47
2022-08-21T19:07:13.445Z,100303.81
2022-08-21T19:09:40.279Z,100307.88
2022-08-21T19:12:09.426Z,100307.59
2022-08-21T19:14:38.130Z,100302.88
2022-08-21T19:17:04.667Z,100293.56
2022-08-21T19:19:31.614Z,100297.63
2022-08-21T19:21:58.684Z,100300.59
2022-08-21T19:24:26.433Z,100301.38
2022-08-21T19:26:55.758Z,100301.06
2022-08-21T19:29:35.080Z,100308.13
2022-08-21T19:32:05.665Z,100309.22
2022-08-21T19:34:33.517Z,100311.91
2022-08-21T19:37:03.673Z,100303.94
2022-08-21T19:39:37.914Z,100322.16
2022-08-21T19:42:06.208Z,100329.47
2022-08-21T19:44:38.029Z,100324.56
2022-08-21T19:47:13.958Z,100289.19
2022-08-21T19:49:52.291Z,100324.19
2022-08-21T19:52:20.360Z,100326.81
2022-08-21T19:54:46.782Z,100303.78
2022-08-21T19:57:13.373Z,100317.50
2022-08-21T19:59:41.741Z,100314.97
2022-08-21T20:02:09.631Z,100317.91
2022-08-21T20:04:36.899Z,100320.63
2022-08-21T20:07:04.562Z,100317.91
2022-08-21T20:09:36.229Z,100324.72
2022-08-21T20:12:10.020Z,100315.19
2022-08-21T20:14:44.000Z,100318.41
2022-08-21T20:17:12.619Z,100321.59
2022-08-21T20:19:41.537Z,100315.84
2022-08-21T20:22:08.053Z,100325.59
2022-08-21T20:24:36.109Z,100320.41
2022-08-21T20:29:51.166Z,100325.25
2022-08-21T20:32:17.662Z,100324.19
2022-08-21T20:34:45.225Z,100323.69
2022-08-21T20:37:12.107Z,100326.66
2022-08-21T20:39:38.580Z,100326.66
2022-08-21T20:42:08.971Z,100318.41
2022-08-21T20:44:36.422Z,100325.16
2022-08-21T20:47:08.520Z,100322.13
2022-08-21T20:49:42.979Z,100320.94
2022-08-21T20:52:09.444Z,100329.97
2022-08-21T20:54:44.999Z,100328.09
2022-08-21T20:57:18.253Z,100324.53
2022-08-21T20:59:55.327Z,100331.03
2022-08-21T21:02:51.972Z,100320.69
2022-08-21T21:05:31.192Z,100326.13
2022-08-21T21:08:03.809Z,100323.41
2022-08-21T21:10:52.070Z,100322.00
2022-08-21T21:13:32.841Z,100319.28
2022-08-21T21:16:04.322Z,100307.44
2022-08-21T21:18:41.589Z,100321.69
2022-08-21T21:21:32.865Z,100319.75
2022-08-21T21:24:05.738Z,100319.69
2022-08-21T21:29:40.045Z,100314.19
2022-08-21T21:32:08.344Z,100320.19
2022-08-21T21:34:42.487Z,100329.63
2022-08-21T21:37:25.411Z,100320.69
2022-08-21T21:40:29.625Z,100321.19
2022-08-21T21:43:24.302Z,100320.31
2022-08-21T21:46:09.255Z,100315.28
2022-08-21T21:49:02.033Z,100313.34
2022-08-21T21:51:51.443Z,100323.59
2022-08-21T21:54:47.073Z,100322.22
2022-08-21T21:57:44.880Z,100323.44
2022-08-21T22:00:20.215Z,100320.19
2022-08-21T22:03:22.445Z,100321.81
2022-08-21T22:05:51.653Z,100323.38
2022-08-21T22:08:50.764Z,100323.06
2022-08-21T22:11:28.515Z,100311.00
2022-08-21T22:14:04.376Z,100318.81
2022-08-21T22:16:33.865Z,100318.81
2022-08-21T22:19:13.752Z,100303.13
2022-08-21T22:21:46.806Z,100318.50
2022-08-21T22:24:17.999Z,100331.16
2022-08-21T22:26:50.504Z,100331.66
2022-08-21T22:29:22.474Z,100322.69
2022-08-21T22:32:07.652Z,100319.31
2022-08-21T22:34:34.556Z,100329.50
2022-08-21T22:37:08.160Z,100325.66
2022-08-21T22:39:39.378Z,100313.00
2022-08-21T22:42:26.073Z,100326.63
2022-08-21T22:44:56.577Z,100326.06
2022-08-21T22:47:32.069Z,100337.94
2022-08-21T22:50:04.755Z,100339.59
2022-08-21T22:52:35.155Z,100343.97
2022-08-21T22:55:17.907Z,100342.31
2022-08-21T22:58:11.940Z,100326.00
2022-08-21T23:00:44.325Z,100337.75
2022-08-21T23:03:21.346Z,100345.53
2022-08-21T23:05:49.317Z,100337.31
2022-08-21T23:08:38.211Z,100339.13
2022-08-21T23:11:13.575Z,100338.22
2022-08-21T23:13:44.859Z,100334.84
2022-08-21T23:16:47.143Z,100338.28
2022-08-21T23:19:53.039Z,100338.88
2022-08-21T23:22:47.396Z,100330.44
2022-08-21T23:25:38.000Z,100313.66
2022-08-21T23:28:23.292Z,100321.53
2022-08-21T23:31:18.649Z,100325.81
2022-08-21T23:34:26.380Z,100324.28
2022-08-21T23:37:48.353Z,100317.38
2022-08-21T23:40:22.935Z,100322.34
2022-08-21T23:43:02.121Z,100314.81
2022-08-21T23:45:33.120Z,100318.22
2022-08-21T23:48:31.208Z,100314.34
2022-08-21T23:51:02.613Z,100316.72
2022-08-21T23:53:50.387Z,100299.09
2022-08-21T23:56:44.998Z,100322.47
2022-08-21T23:59:33.338Z,100316.13
